Time;durP1;ratioP1;P1;durP2;ratioP2;P2;SDS_P1;SDS_P2;PMS_P1;PMS_P2;Temp;Humidity;BMP_temperature;BMP_pressure;BME280_temperature;BME280_humidity;BME280_pressure;Samples;Min_cycle;Max_cycle;Signal;HPM_P1;HPM_P2
2022/10/17 00:01:35;;;;;;;7.70;2.30;;;16.20;99.90;;;;;;4952270;29;20200;-78
2022/10/17 00:04:06;;;;;;;14.65;2.70;;;16.40;99.90;;;;;;4952684;29;20209;-81
2022/10/17 00:06:39;;;;;;;8.70;2.33;;;16.50;99.90;;;;;;4949090;29;20211;-81
2022/10/17 00:09:10;;;;;;;10.60;2.30;;;16.60;99.90;;;;;;4946051;29;21739;-77
2022/10/17 00:11:42;;;;;;;10.02;2.20;;;16.70;99.90;;;;;;4950814;28;20201;-79
2022/10/17 00:14:13;;;;;;;6.68;1.50;;;16.70;99.90;;;;;;4951275;29;20201;-79
2022/10/17 00:16:44;;;;;;;8.80;2.65;;;16.90;99.90;;;;;;4946810;29;20203;-81
2022/10/17 00:19:15;;;;;;;7.53;1.60;;;17.00;99.90;;;;;;4951024;29;20196;-83
2022/10/17 00:21:50;;;;;;;9.05;1.70;;;17.20;99.90;;;;;;4949605;29;20201;-84
2022/10/17 00:24:21;;;;;;;11.45;1.80;;;17.30;99.90;;;;;;4950440;29;20196;-78
2022/10/17 00:26:52;;;;;;;8.18;1.95;;;17.40;99.90;;;;;;4955594;29;20208;-84
2022/10/17 00:29:23;;;;;;;3.42;1.10;;;17.40;99.90;;;;;;4957500;29;20219;-84
2022/10/17 00:31:57;;;;;;;7.43;1.55;;;17.50;99.90;;;;;;4957732;29;20196;-84
2022/10/17 00:34:30;;;;;;;6.05;1.30;;;17.50;99.90;;;;;;4955209;29;20193;-84
2022/10/17 00:37:03;;;;;;;5.47;1.40;;;17.60;99.90;;;;;;4950536;29;20287;-80
2022/10/17 00:39:34;;;;;;;5.22;1.23;;;17.70;99.90;;;;;;4952051;29;20229;-83
2022/10/17 00:42:05;;;;;;;4.78;1.30;;;17.70;99.90;;;;;;4952110;29;20225;-83
2022/10/17 00:45:06;;;;;;;3.65;1.40;;;17.70;99.90;;;;;;4949516;29;20317;-83
2022/10/17 00:47:40;;;;;;;6.53;1.48;;;17.50;99.90;;;;;;4951434;29;20316;-80
2022/10/17 00:50:13;;;;;;;4.90;1.20;;;17.40;99.90;;;;;;4949544;29;20196;-80
2022/10/17 00:52:47;;;;;;;8.80;1.42;;;17.30;99.90;;;;;;4949930;29;20540;-82
2022/10/17 00:55:22;;;;;;;5.70;1.20;;;17.30;99.90;;;;;;4950457;29;20230;-83
2022/10/17 00:57:54;;;;;;;4.03;1.17;;;17.20;99.90;;;;;;4950322;29;20204;-85
2022/10/17 01:00:25;;;;;;;3.95;1.27;;;17.20;99.90;;;;;;4951426;29;20197;-82
2022/10/17 01:02:56;;;;;;;4.20;1.30;;;17.20;99.90;;;;;;4955285;29;20294;-82
2022/10/17 01:05:27;;;;;;;4.05;1.00;;;17.20;99.90;;;;;;4948660;29;20255;-84
2022/10/17 01:08:00;;;;;;;4.53;1.20;;;17.20;99.90;;;;;;4952875;29;20221;-83
2022/10/17 01:10:36;;;;;;;6.55;1.35;;;17.10;99.90;;;;;;4955939;29;20201;-78
2022/10/17 01:13:13;;;;;;;5.38;1.20;;;17.10;99.90;;;;;;4953932;29;20211;-78
2022/10/17 01:15:54;;;;;;;5.32;1.30;;;17.00;99.90;;;;;;4951857;29;20201;-80
2022/10/17 01:18:36;;;;;;;7.45;1.35;;;16.90;99.90;;;;;;4951137;29;20212;-83
2022/10/17 01:21:29;;;;;;;4.47;1.10;;;16.90;99.90;;;;;;4953250;29;20715;-82
2022/10/17 01:24:40;;;;;;;4.63;1.20;;;16.90;99.90;;;;;;4942943;29;20212;-80
2022/10/17 01:27:39;;;;;;;6.78;1.33;;;16.90;99.90;;;;;;4933351;29;20213;-81
2022/10/17 01:30:52;;;;;;;6.88;1.40;;;16.90;99.90;;;;;;4950220;29;20220;-80
2022/10/17 01:33:39;;;;;;;8.07;1.27;;;16.90;99.90;;;;;;4952075;29;20207;-77
2022/10/17 01:36:13;;;;;;;4.88;1.23;;;17.00;99.90;;;;;;4952449;29;20624;-79
2022/10/17 01:38:50;;;;;;;5.25;1.17;;;17.00;99.90;;;;;;4951321;29;20205;-78
2022/10/17 01:41:30;;;;;;;5.80;0.98;;;17.00;99.90;;;;;;4946075;29;20209;-81
2022/10/17 01:44:06;;;;;;;4.68;1.20;;;17.10;99.90;;;;;;4955696;29;20200;-84
2022/10/17 01:46:39;;;;;;;2.95;1.10;;;17.20;99.90;;;;;;4951831;28;20228;-81
2022/10/17 01:49:16;;;;;;;5.90;1.13;;;17.30;99.90;;;;;;4952971;29;20718;-81
2022/10/17 01:51:53;;;;;;;3.33;0.82;;;17.30;99.90;;;;;;4949123;29;20219;-83
2022/10/17 01:54:29;;;;;;;8.43;1.40;;;17.30;99.90;;;;;;4950212;29;20228;-80
2022/10/17 01:57:03;;;;;;;4.10;1.00;;;17.40;99.90;;;;;;4950887;29;20690;-77
2022/10/17 01:59:40;;;;;;;3.65;1.30;;;17.50;99.90;;;;;;4952408;29;20205;-76
2022/10/17 02:02:14;;;;;;;4.07;1.00;;;17.60;99.90;;;;;;4949147;29;20211;-77
2022/10/17 02:04:48;;;;;;;5.85;1.23;;;17.70;99.90;;;;;;4948106;29;20199;-77
2022/10/17 02:07:19;;;;;;;7.50;1.10;;;17.90;99.90;;;;;;4948406;29;20197;-79
2022/10/17 02:09:50;;;;;;;4.40;1.10;;;17.90;99.90;;;;;;4949840;29;20228;-76
2022/10/17 02:12:47;;;;;;;7.00;1.08;;;17.90;99.90;;;;;;4954707;29;20688;-77
2022/10/17 02:15:40;;;;;;;5.10;1.08;;;17.90;99.90;;;;;;4950524;29;20621;-76
2022/10/17 02:18:24;;;;;;;2.30;0.82;;;17.90;99.90;;;;;;4951405;28;20212;-77
2022/10/17 02:21:02;;;;;;;5.75;1.20;;;17.90;99.90;;;;;;4945202;29;20201;-80
2022/10/17 02:23:40;;;;;;;9.27;1.55;;;17.90;99.90;;;;;;4947235;29;20198;-79
2022/10/17 02:26:16;;;;;;;4.97;1.00;;;18.00;99.90;;;;;;4953034;29;20201;-78
2022/10/17 02:29:00;;;;;;;8.23;1.48;;;18.00;99.90;;;;;;4949408;29;20456;-78
2022/10/17 02:31:37;;;;;;;4.32;1.20;;;18.00;99.90;;;;;;4953026;29;20227;-77
2022/10/17 02:34:10;;;;;;;6.30;1.00;;;18.10;99.90;;;;;;4953505;28;20208;-81
2022/10/17 02:36:48;;;;;;;9.38;1.60;;;18.10;99.90;;;;;;4952420;29;20291;-77
2022/10/17 02:39:20;;;;;;;4.63;1.42;;;18.20;99.90;;;;;;4953550;29;20192;-77
2022/10/17 02:41:53;;;;;;;4.82;1.23;;;18.20;99.90;;;;;;4952699;29;20204;-79
2022/10/17 02:44:25;;;;;;;5.72;0.93;;;18.50;99.90;;;;;;4950752;29;20212;-78
2022/10/17 02:47:03;;;;;;;6.00;0.90;;;18.60;99.90;;;;;;4950730;28;20235;-80
2022/10/17 02:49:37;;;;;;;7.30;1.10;;;18.70;99.90;;;;;;4952514;29;20216;-78
2022/10/17 02:52:15;;;;;;;10.00;1.17;;;18.70;99.90;;;;;;4955136;29;20216;-77
2022/10/17 02:54:50;;;;;;;7.75;1.23;;;18.60;99.90;;;;;;4948144;29;20606;-77
2022/10/17 02:57:27;;;;;;;6.47;1.33;;;18.70;99.90;;;;;;4953567;29;20204;-79
2022/10/17 02:59:59;;;;;;;4.22;1.00;;;18.60;99.90;;;;;;4952195;29;20211;-81
2022/10/17 03:02:39;;;;;;;8.40;1.27;;;18.50;99.90;;;;;;4953607;29;20287;-78
2022/10/17 03:05:11;;;;;;;6.80;0.98;;;18.50;99.90;;;;;;4953241;29;20196;-86
2022/10/17 03:07:44;;;;;;;7.45;1.20;;;18.40;99.90;;;;;;4952970;29;20201;-79
2022/10/17 03:10:15;;;;;;;8.50;1.10;;;18.30;99.90;;;;;;4952114;29;20212;-79
2022/10/17 03:12:46;;;;;;;4.43;0.95;;;18.30;99.90;;;;;;4953112;29;20197;-78
2022/10/17 03:15:17;;;;;;;4.35;0.90;;;18.30;99.90;;;;;;4953316;29;20201;-78
2022/10/17 03:17:48;;;;;;;6.30;1.08;;;18.30;99.90;;;;;;4952501;29;20197;-79
2022/10/17 03:20:19;;;;;;;8.57;1.17;;;18.30;99.90;;;;;;4953532;29;20255;-77
2022/10/17 03:22:52;;;;;;;5.55;1.10;;;18.20;99.90;;;;;;4951910;29;20284;-78
2022/10/17 03:25:23;;;;;;;4.88;1.10;;;18.10;99.90;;;;;;4952672;29;20201;-77
2022/10/17 03:27:54;;;;;;;5.07;1.10;;;18.10;99.90;;;;;;4946350;29;20208;-77
2022/10/17 03:30:25;;;;;;;5.93;1.05;;;18.10;99.90;;;;;;4946198;29;20221;-78
2022/10/17 03:32:56;;;;;;;5.05;1.10;;;18.20;99.90;;;;;;4952928;29;20197;-77
2022/10/17 03:35:27;;;;;;;7.13;1.30;;;18.20;99.90;;;;;;4950224;29;20557;-78
2022/10/17 03:38:00;;;;;;;6.32;1.08;;;18.30;99.90;;;;;;4951757;29;20201;-78
2022/10/17 03:40:31;;;;;;;5.53;0.80;;;18.30;99.90;;;;;;4945112;29;20201;-80
2022/10/17 03:43:02;;;;;;;6.97;1.10;;;18.40;99.90;;;;;;4948791;29;20208;-78
2022/10/17 03:45:33;;;;;;;9.23;1.30;;;18.60;99.90;;;;;;4949658;28;20232;-77
2022/10/17 03:48:04;;;;;;;6.10;1.15;;;18.80;99.90;;;;;;4949264;29;20201;-77
2022/10/17 03:50:35;;;;;;;4.07;1.10;;;18.90;99.90;;;;;;4950795;29;20220;-80
2022/10/17 03:53:08;;;;;;;8.38;0.90;;;19.00;99.90;;;;;;4950048;28;20201;-78
2022/10/17 03:55:39;;;;;;;4.28;0.90;;;18.90;99.90;;;;;;4949796;29;20216;-78
2022/10/17 03:58:10;;;;;;;9.90;1.30;;;18.80;99.90;;;;;;4945380;29;20216;-79
2022/10/17 04:00:42;;;;;;;6.97;1.10;;;18.70;99.90;;;;;;4948890;29;20681;-82
2022/10/17 04:03:12;;;;;;;5.88;1.20;;;18.70;99.90;;;;;;4950529;29;20209;-80
2022/10/17 04:05:44;;;;;;;5.78;1.15;;;18.70;99.90;;;;;;4947405;29;20683;-83
2022/10/17 04:08:19;;;;;;;6.95;1.00;;;18.70;99.90;;;;;;4949509;29;20209;-83
2022/10/17 04:10:50;;;;;;;5.78;1.00;;;18.70;99.90;;;;;;4949222;29;20196;-80
2022/10/17 04:13:21;;;;;;;4.25;0.70;;;18.50;99.90;;;;;;4951783;29;20200;-79
2022/10/17 04:15:58;;;;;;;8.13;1.02;;;18.40;99.90;;;;;;4949027;29;20201;-84
2022/10/17 04:18:29;;;;;;;7.75;0.98;;;18.40;99.90;;;;;;4949537;29;20207;-83
2022/10/17 04:21:02;;;;;;;4.43;1.13;;;18.20;99.90;;;;;;4945782;29;20573;-79
2022/10/17 04:23:35;;;;;;;5.68;1.00;;;18.20;99.90;;;;;;4949729;29;20202;-80
2022/10/17 04:26:07;;;;;;;5.55;1.02;;;18.20;99.90;;;;;;4949228;29;20209;-78
2022/10/17 04:28:38;;;;;;;4.38;1.20;;;18.30;99.90;;;;;;4945729;29;20224;-80
2022/10/17 04:31:09;;;;;;;6.18;1.55;;;18.30;99.90;;;;;;4948469;29;20293;-79
2022/10/17 04:33:40;;;;;;;3.80;0.80;;;18.40;99.90;;;;;;4946621;29;20212;-79
2022/10/17 04:36:15;;;;;;;7.10;1.02;;;18.40;99.90;;;;;;4952738;29;20197;-79
2022/10/17 04:38:48;;;;;;;5.43;1.02;;;18.50;99.90;;;;;;4949050;29;20200;-78
2022/10/17 04:41:20;;;;;;;3.17;0.90;;;18.50;99.90;;;;;;4947189;29;20204;-78
2022/10/17 04:43:50;;;;;;;5.28;1.00;;;18.40;99.90;;;;;;4945521;29;20585;-77
2022/10/17 04:46:21;;;;;;;4.82;1.00;;;18.40;99.90;;;;;;4945779;28;20216;-82
2022/10/17 04:48:52;;;;;;;4.40;0.98;;;18.30;99.90;;;;;;4948828;29;20248;-83
2022/10/17 04:51:23;;;;;;;6.10;1.20;;;18.30;99.90;;;;;;4945972;29;20213;-80
2022/10/17 04:53:56;;;;;;;8.32;1.20;;;18.20;99.90;;;;;;4948021;29;20232;-78
2022/10/17 04:56:27;;;;;;;4.97;1.15;;;18.20;99.90;;;;;;4947353;28;20205;-80
2022/10/17 04:58:59;;;;;;;5.22;0.88;;;18.10;99.90;;;;;;4948454;29;20209;-79
2022/10/17 05:01:33;;;;;;;3.90;0.80;;;18.10;99.90;;;;;;4947504;29;20205;-80
2022/10/17 05:04:04;;;;;;;6.00;1.00;;;18.00;99.90;;;;;;4949324;29;20578;-81
2022/10/17 05:06:36;;;;;;;3.30;1.05;;;18.00;99.90;;;;;;4950033;29;20201;-79
2022/10/17 05:09:09;;;;;;;4.45;1.02;;;18.00;99.90;;;;;;4951468;29;20222;-80
2022/10/17 05:11:40;;;;;;;5.68;1.00;;;18.00;99.90;;;;;;4952227;29;20209;-82
2022/10/17 05:14:11;;;;;;;8.65;4.10;;;18.00;99.90;;;;;;4950549;29;20185;-78
2022/10/17 05:16:42;;;;;;;6.35;1.20;;;17.90;99.90;;;;;;4950041;29;20201;-79
2022/10/17 05:19:14;;;;;;;6.82;0.93;;;17.90;99.90;;;;;;4955129;29;20197;-80
2022/10/17 05:21:45;;;;;;;6.15;1.00;;;18.00;99.90;;;;;;4948453;29;20201;-81
2022/10/17 05:24:19;;;;;;;5.05;1.05;;;18.00;99.90;;;;;;4950993;29;20192;-79
2022/10/17 05:26:52;;;;;;;4.70;1.00;;;18.00;99.90;;;;;;4952150;29;20194;-80
2022/10/17 05:29:23;;;;;;;5.75;1.05;;;18.10;99.90;;;;;;4950909;29;20216;-79
2022/10/17 05:31:54;;;;;;;4.30;1.20;;;18.20;99.90;;;;;;4952660;29;20562;-83
2022/10/17 05:34:25;;;;;;;5.07;0.90;;;18.20;99.90;;;;;;4952541;29;20691;-81
2022/10/17 05:36:56;;;;;;;4.25;0.80;;;18.10;99.90;;;;;;4949238;29;20186;-78
2022/10/17 05:39:29;;;;;;;4.03;0.80;;;18.10;99.90;;;;;;4950100;29;20205;-79
2022/10/17 05:42:00;;;;;;;5.95;0.80;;;18.10;99.90;;;;;;4954140;29;20211;-79
2022/10/17 05:44:30;;;;;;;2.88;0.85;;;18.00;99.90;;;;;;4950096;28;20209;-79
2022/10/17 05:47:01;;;;;;;5.10;1.00;;;17.90;99.90;;;;;;4954383;29;20193;-77
2022/10/17 05:49:32;;;;;;;6.43;1.10;;;18.00;99.90;;;;;;4948706;29;20296;-77
2022/10/17 05:52:06;;;;;;;6.55;1.08;;;18.10;99.90;;;;;;4950381;29;20335;-77
2022/10/17 05:54:39;;;;;;;2.85;1.10;;;18.20;99.90;;;;;;4948418;29;20603;-77
2022/10/17 05:57:11;;;;;;;5.50;0.98;;;18.30;99.90;;;;;;4933178;29;20201;-78
2022/10/17 05:59:41;;;;;;;2.95;0.80;;;18.20;99.90;;;;;;4951608;29;20308;-78
2022/10/17 06:02:14;;;;;;;2.95;0.90;;;18.30;99.90;;;;;;4951872;29;20193;-78
2022/10/17 06:04:45;;;;;;;3.90;0.80;;;18.40;99.90;;;;;;4949305;29;20684;-79
2022/10/17 06:07:16;;;;;;;4.65;0.88;;;18.40;99.90;;;;;;4950588;29;20205;-80
2022/10/17 06:09:49;;;;;;;5.15;0.90;;;18.50;99.90;;;;;;4951542;28;20553;-81
2022/10/17 06:12:20;;;;;;;6.28;0.80;;;18.50;99.90;;;;;;4952575;29;20571;-78
2022/10/17 06:14:51;;;;;;;3.28;0.70;;;18.50;99.90;;;;;;4950512;29;20208;-79
2022/10/17 06:17:21;;;;;;;5.50;1.10;;;18.40;99.90;;;;;;4950376;29;20211;-79
2022/10/17 06:19:52;;;;;;;5.90;1.00;;;18.40;99.90;;;;;;4952996;29;20198;-79
2022/10/17 06:22:23;;;;;;;3.88;0.95;;;18.50;99.90;;;;;;4953510;29;20211;-79
2022/10/17 06:24:56;;;;;;;3.72;0.70;;;18.40;99.90;;;;;;4951835;29;20213;-81
2022/10/17 06:27:27;;;;;;;2.72;0.85;;;18.50;99.90;;;;;;4952527;29;20566;-80
2022/10/17 06:29:58;;;;;;;3.55;0.88;;;18.40;99.90;;;;;;4953893;29;20217;-81
2022/10/17 06:32:29;;;;;;;7.18;1.15;;;18.40;99.90;;;;;;4954231;29;20216;-81
2022/10/17 06:35:00;;;;;;;3.55;0.93;;;18.40;99.90;;;;;;4953882;29;20197;-80
2022/10/17 06:37:35;;;;;;;3.70;0.90;;;18.30;99.90;;;;;;4954845;29;20197;-80
2022/10/17 06:40:09;;;;;;;2.38;0.60;;;18.30;99.90;;;;;;4949954;29;20193;-80
2022/10/17 06:42:40;;;;;;;4.80;0.80;;;18.30;99.90;;;;;;4952250;29;20291;-79
2022/10/17 06:45:12;;;;;;;5.07;0.90;;;18.30;99.90;;;;;;4950391;28;20225;-81
2022/10/17 06:47:43;;;;;;;3.33;0.80;;;18.40;99.90;;;;;;4954735;29;20201;-81
2022/10/17 06:50:14;;;;;;;7.30;0.88;;;18.20;99.90;;;;;;4954808;29;20681;-78
2022/10/17 06:52:45;;;;;;;3.20;0.73;;;18.10;99.90;;;;;;4950888;29;20200;-77
2022/10/17 06:55:18;;;;;;;5.60;0.90;;;18.00;99.90;;;;;;4953624;29;20255;-80
2022/10/17 06:57:50;;;;;;;17.42;1.10;;;17.90;99.90;;;;;;4953847;29;20185;-80
2022/10/17 07:00:22;;;;;;;3.95;1.00;;;17.80;99.90;;;;;;4951156;29;20221;-80
2022/10/17 07:02:53;;;;;;;7.30;0.98;;;17.80;99.90;;;;;;4950851;29;20698;-81
2022/10/17 07:05:24;;;;;;;9.45;0.95;;;17.70;99.90;;;;;;4954341;29;20189;-78
2022/10/17 07:07:55;;;;;;;7.15;1.00;;;17.70;99.90;;;;;;4950977;29;20205;-77
2022/10/17 07:10:28;;;;;;;7.57;1.00;;;17.50;99.90;;;;;;4948349;29;20295;-78
2022/10/17 07:12:59;;;;;;;8.52;0.98;;;17.50;99.90;;;;;;4952000;29;20672;-76
2022/10/17 07:15:31;;;;;;;5.60;1.10;;;17.50;99.90;;;;;;4949913;29;20197;-76
2022/10/17 07:18:02;;;;;;;4.97;0.82;;;17.50;99.90;;;;;;4954042;29;20613;-77
2022/10/17 07:20:33;;;;;;;5.75;0.90;;;17.40;99.90;;;;;;4953098;28;20292;-78
2022/10/17 07:23:04;;;;;;;5.05;0.80;;;17.40;99.90;;;;;;4952826;29;20201;-77
2022/10/17 07:25:38;;;;;;;3.67;1.20;;;17.30;99.90;;;;;;4953303;29;20200;-78
2022/10/17 07:28:09;;;;;;;4.97;1.00;;;17.30;99.90;;;;;;4954414;29;20213;-77
2022/10/17 07:30:40;;;;;;;3.05;0.93;;;17.20;99.90;;;;;;4952934;29;20220;-77
2022/10/17 07:33:11;;;;;;;4.00;1.00;;;17.20;99.90;;;;;;4942880;29;20642;-76
2022/10/17 07:35:42;;;;;;;7.40;1.13;;;17.10;99.90;;;;;;4951984;29;20201;-78
2022/10/17 07:38:13;;;;;;;4.20;0.90;;;17.10;99.90;;;;;;4978150;23;20233;-72
2022/10/17 07:40:46;;;;;;;5.28;0.77;;;17.10;99.90;;;;;;4946091;29;20197;-73
2022/10/17 07:43:17;;;;;;;5.43;0.95;;;17.00;99.90;;;;;;4948997;28;20239;-78
2022/10/17 07:45:47;;;;;;;5.57;1.33;;;17.00;99.90;;;;;;4945493;28;20573;-77
2022/10/17 07:48:18;;;;;;;3.50;0.90;;;17.00;99.90;;;;;;4950192;28;20211;-80
2022/10/17 07:50:50;;;;;;;4.53;1.20;;;17.00;99.90;;;;;;4951390;29;20221;-76
2022/10/17 07:53:21;;;;;;;6.03;1.40;;;17.00;99.90;;;;;;4947375;28;20201;-70
2022/10/17 07:55:54;;;;;;;4.60;1.33;;;16.90;99.90;;;;;;4945362;28;20281;-75
2022/10/17 07:58:25;;;;;;;4.97;1.17;;;16.90;99.90;;;;;;4950732;29;20560;-74
2022/10/17 08:00:56;;;;;;;5.28;1.00;;;16.90;99.90;;;;;;4954147;29;20193;-72
2022/10/17 08:03:26;;;;;;;3.33;0.90;;;16.80;99.90;;;;;;4944093;28;20204;-76
2022/10/17 08:06:01;;;;;;;4.57;1.00;;;16.80;99.90;;;;;;4945129;28;20197;-75
2022/10/17 08:08:32;;;;;;;5.93;0.93;;;16.70;99.90;;;;;;4946067;28;20201;-71
2022/10/17 08:11:08;;;;;;;7.10;1.10;;;16.70;99.90;;;;;;4946662;28;20310;-73
2022/10/17 08:13:40;;;;;;;5.38;1.08;;;16.70;99.90;;;;;;4943642;29;20204;-77
2022/10/17 08:16:12;;;;;;;3.80;0.85;;;16.60;99.90;;;;;;4943976;28;20208;-80
2022/10/17 08:18:44;;;;;;;5.15;0.82;;;16.60;99.90;;;;;;4949396;28;20710;-69
2022/10/17 08:21:16;;;;;;;9.05;1.00;;;16.50;99.90;;;;;;4942212;28;20657;-74
2022/10/17 08:23:47;;;;;;;7.60;1.00;;;16.50;99.90;;;;;;4948169;28;20208;-77
2022/10/17 08:26:20;;;;;;;6.38;1.15;;;16.40;99.90;;;;;;4947517;28;20572;-77
2022/10/17 08:28:50;;;;;;;5.15;1.10;;;16.40;99.90;;;;;;4947808;28;20289;-82
2022/10/17 08:31:23;;;;;;;9.35;1.60;;;16.40;99.90;;;;;;4951722;28;20221;-71
2022/10/17 08:33:53;;;;;;;3.90;1.17;;;16.30;99.90;;;;;;4953056;28;20225;-80
2022/10/17 08:36:24;;;;;;;5.00;1.20;;;16.30;99.90;;;;;;4941509;28;20213;-70
2022/10/17 08:38:55;;;;;;;7.93;1.10;;;16.20;99.90;;;;;;4941650;29;20241;-71
2022/10/17 08:41:45;;;;;;;5.07;0.93;;;16.30;99.90;;;;;;4933326;29;20208;-70
2022/10/17 08:44:30;;;;;;;5.53;1.20;;;16.30;99.90;;;;;;4938705;28;20656;-82
2022/10/17 08:47:05;;;;;;;5.30;1.05;;;16.20;99.90;;;;;;4937548;29;20276;-78
2022/10/17 08:49:45;;;;;;;6.65;1.33;;;16.20;99.90;;;;;;4937727;29;20541;-77
2022/10/17 08:52:23;;;;;;;3.53;1.00;;;16.20;99.90;;;;;;4939150;29;20208;-72
2022/10/17 08:54:54;;;;;;;6.80;1.30;;;16.20;99.90;;;;;;4941320;29;20205;-82
2022/10/17 08:57:27;;;;;;;6.60;1.10;;;16.20;99.90;;;;;;4938452;29;20197;-80
2022/10/17 08:59:58;;;;;;;5.00;1.40;;;16.30;99.90;;;;;;4932449;29;20208;-80
2022/10/17 09:02:44;;;;;;;6.43;1.45;;;16.30;99.90;;;;;;4936380;28;20205;-80
2022/10/17 09:05:41;;;;;;;6.97;1.58;;;16.30;99.90;;;;;;4938417;29;20194;-79
2022/10/17 09:08:35;;;;;;;3.78;1.10;;;16.30;99.90;;;;;;4940561;29;20687;-77
2022/10/17 09:11:17;;;;;;;4.25;1.00;;;16.30;99.90;;;;;;4931601;29;20240;-80
2022/10/17 09:14:01;;;;;;;5.30;1.20;;;16.30;99.90;;;;;;4938355;29;20199;-77
2022/10/17 09:16:48;;;;;;;3.58;1.50;;;16.30;99.90;;;;;;4937378;29;20190;-81
2022/10/17 09:19:24;;;;;;;6.47;1.10;;;16.40;99.90;;;;;;4940539;29;20202;-76
2022/10/17 09:22:00;;;;;;;3.67;1.15;;;16.30;99.90;;;;;;4942527;29;20843;-76
2022/10/17 09:24:40;;;;;;;3.75;0.90;;;16.30;99.90;;;;;;4941607;29;20620;-71
2022/10/17 09:27:20;;;;;;;5.53;1.10;;;16.40;99.90;;;;;;4937897;29;20197;-78
2022/10/17 09:29:59;;;;;;;5.75;1.10;;;16.40;99.90;;;;;;4929485;29;20197;-79
2022/10/17 09:32:31;;;;;;;4.55;0.90;;;16.40;99.90;;;;;;4935338;29;20193;-72
2022/10/17 09:35:02;;;;;;;4.07;0.88;;;16.40;99.90;;;;;;4937510;29;20190;-81
2022/10/17 09:37:34;;;;;;;5.50;1.08;;;16.40;99.90;;;;;;4937700;29;20221;-83
2022/10/17 09:40:08;;;;;;;8.43;1.10;;;16.40;99.90;;;;;;4958419;28;20205;-79
2022/10/17 09:42:39;;;;;;;4.97;1.02;;;16.40;99.90;;;;;;4956737;29;20196;-82
2022/10/17 09:45:23;;;;;;;2.60;0.80;;;16.40;99.90;;;;;;4959050;28;20706;-81
2022/10/17 09:48:02;;;;;;;5.97;1.08;;;16.40;99.90;;;;;;4949382;28;20211;-80
2022/10/17 09:50:35;;;;;;;3.65;0.75;;;16.40;99.90;;;;;;4954998;29;20225;-79
2022/10/17 09:53:14;;;;;;;5.13;1.00;;;16.40;99.90;;;;;;4948284;28;20197;-78
2022/10/17 09:55:47;;;;;;;4.60;0.82;;;16.40;99.90;;;;;;4956168;29;20193;-81
2022/10/17 09:58:17;;;;;;;4.25;0.98;;;16.40;99.90;;;;;;4955246;29;20201;-81
2022/10/17 10:00:50;;;;;;;4.90;0.82;;;16.50;99.90;;;;;;4956544;29;20655;-72
2022/10/17 10:03:22;;;;;;;4.40;0.98;;;16.50;99.90;;;;;;4956565;29;20197;-77
2022/10/17 10:06:04;;;;;;;3.13;0.93;;;16.50;99.90;;;;;;4954706;28;20201;-77
2022/10/17 10:08:36;;;;;;;3.95;0.85;;;16.50;99.90;;;;;;4959815;28;20207;-77
2022/10/17 10:11:08;;;;;;;6.18;1.15;;;16.50;99.90;;;;;;4948251;29;20223;-74
2022/10/17 10:13:40;;;;;;;8.00;1.27;;;16.50;99.90;;;;;;4962583;28;20207;-78
2022/10/17 10:16:21;;;;;;;7.45;1.00;;;16.40;99.90;;;;;;4956471;28;20197;-76
2022/10/17 10:18:53;;;;;;;4.38;1.00;;;16.40;99.90;;;;;;4955997;29;20533;-76
2022/10/17 10:21:26;;;;;;;7.22;1.00;;;16.40;99.90;;;;;;4956015;29;20196;-73
2022/10/17 10:24:13;;;;;;;5.40;0.98;;;16.40;99.90;;;;;;4955039;28;20232;-78
2022/10/17 10:26:46;;;;;;;6.05;0.90;;;16.40;99.90;;;;;;4956154;28;20199;-74
2022/10/17 10:29:29;;;;;;;5.78;0.95;;;16.30;99.90;;;;;;4956125;28;20566;-76
2022/10/17 10:32:11;;;;;;;3.53;0.90;;;16.30;99.90;;;;;;4955077;29;20224;-79
2022/10/17 10:34:49;;;;;;;3.60;0.80;;;16.20;99.90;;;;;;4956027;29;20199;-78
2022/10/17 10:37:23;;;;;;;8.45;1.10;;;16.20;99.90;;;;;;4954978;29;20215;-68
2022/10/17 10:39:56;;;;;;;2.67;0.90;;;16.20;99.90;;;;;;4954792;29;20624;-69
2022/10/17 10:42:29;;;;;;;3.53;0.80;;;16.20;99.90;;;;;;4952640;29;20196;-73
2022/10/17 10:45:06;;;;;;;5.15;0.90;;;16.20;99.90;;;;;;4955042;29;20295;-77
2022/10/17 10:47:41;;;;;;;3.78;0.90;;;16.20;99.90;;;;;;4954311;28;20292;-74
2022/10/17 10:50:22;;;;;;;3.45;1.10;;;16.20;99.90;;;;;;4960224;28;20229;-74
2022/10/17 10:53:00;;;;;;;6.85;1.10;;;16.20;99.90;;;;;;4951483;29;20212;-76
2022/10/17 10:55:36;;;;;;;5.45;0.73;;;16.10;99.90;;;;;;4950267;28;20201;-73
2022/10/17 10:58:16;;;;;;;5.72;0.75;;;16.10;99.90;;;;;;4956320;28;20211;-76
2022/10/17 11:00:48;;;;;;;3.03;0.70;;;16.10;99.90;;;;;;4957587;28;20280;-78
2022/10/17 11:03:25;;;;;;;6.47;1.02;;;16.10;99.90;;;;;;4954169;28;20201;-80
2022/10/17 11:05:59;;;;;;;6.80;1.33;;;16.10;99.90;;;;;;4956544;28;20192;-74
2022/10/17 11:08:35;;;;;;;2.65;0.65;;;16.10;99.90;;;;;;4953281;28;20646;-74
2022/10/17 11:11:17;;;;;;;3.42;0.70;;;16.10;99.90;;;;;;4950453;28;20279;-73
2022/10/17 11:13:53;;;;;;;5.05;0.70;;;16.10;99.90;;;;;;4953863;29;20201;-79
2022/10/17 11:16:31;;;;;;;9.13;0.90;;;16.10;99.90;;;;;;4951804;28;20201;-76
2022/10/17 11:19:12;;;;;;;4.93;0.90;;;16.10;99.90;;;;;;4951768;28;20201;-80
2022/10/17 11:21:51;;;;;;;5.35;0.80;;;16.10;99.90;;;;;;4955909;28;20205;-77
2022/10/17 11:24:26;;;;;;;5.75;0.70;;;16.10;99.90;;;;;;4952273;28;20197;-79
2022/10/17 11:27:01;;;;;;;2.47;0.70;;;16.10;99.90;;;;;;4952767;29;20597;-76
2022/10/17 11:29:34;;;;;;;2.75;0.75;;;16.00;99.90;;;;;;4948676;29;20198;-78
2022/10/17 11:32:08;;;;;;;3.03;0.90;;;16.00;99.90;;;;;;4957565;28;20224;-71
2022/10/17 11:34:45;;;;;;;6.10;0.80;;;16.00;99.90;;;;;;4952377;28;20206;-76
2022/10/17 11:37:20;;;;;;;6.68;1.00;;;16.00;99.90;;;;;;4954919;28;20220;-79
2022/10/17 11:39:56;;;;;;;3.85;0.73;;;16.00;99.90;;;;;;4952323;29;20237;-78
2022/10/17 11:42:30;;;;;;;6.68;1.23;;;16.00;99.90;;;;;;4954607;28;20201;-73
2022/10/17 11:45:05;;;;;;;3.80;0.82;;;15.90;99.90;;;;;;4951309;29;20211;-77
2022/10/17 11:47:45;;;;;;;4.57;1.90;;;15.90;99.90;;;;;;4952894;28;20698;-77
2022/10/17 11:50:26;;;;;;;3.25;1.40;;;15.90;99.90;;;;;;4954168;28;20247;-79
2022/10/17 11:53:01;;;;;;;7.50;1.00;;;15.90;99.90;;;;;;4950809;29;20579;-80
2022/10/17 11:55:34;;;;;;;3.22;0.90;;;15.90;99.90;;;;;;4948690;28;20196;-76
2022/10/17 11:58:22;;;;;;;2.15;0.80;;;15.90;99.90;;;;;;4952771;28;20260;-80
2022/10/17 12:01:08;;;;;;;6.40;0.93;;;15.90;99.90;;;;;;4951850;28;20214;-81
2022/10/17 12:03:50;;;;;;;4.47;0.80;;;15.90;99.90;;;;;;4952025;28;20613;-79
2022/10/17 12:06:39;;;;;;;2.45;0.90;;;15.90;99.90;;;;;;4953162;28;20251;-76
2022/10/17 12:09:18;;;;;;;3.08;0.70;;;15.90;99.90;;;;;;4956065;29;20672;-81
2022/10/17 12:11:54;;;;;;;4.93;0.90;;;15.80;99.90;;;;;;4955145;28;20687;-80
2022/10/17 12:14:43;;;;;;;4.20;0.80;;;15.90;99.90;;;;;;4955387;28;20196;-80
2022/10/17 12:17:37;;;;;;;2.92;0.80;;;15.80;99.90;;;;;;4958867;28;20200;-83
2022/10/17 12:20:33;;;;;;;3.63;0.95;;;15.80;99.90;;;;;;4956644;28;20203;-81
2022/10/17 12:23:25;;;;;;;3.75;0.70;;;15.80;99.90;;;;;;4952354;28;20568;-82
2022/10/17 12:26:00;;;;;;;4.13;0.90;;;15.80;99.90;;;;;;4956221;28;20204;-80
2022/10/17 12:28:35;;;;;;;2.88;0.90;;;15.80;99.90;;;;;;4958295;28;20243;-80
2022/10/17 12:31:11;;;;;;;5.68;0.90;;;15.80;99.90;;;;;;4955884;29;20205;-81
2022/10/17 12:33:52;;;;;;;7.25;0.98;;;15.80;99.90;;;;;;4956571;28;20247;-78
2022/10/17 12:36:49;;;;;;;4.30;0.90;;;15.70;99.90;;;;;;4953256;28;20197;-78
2022/10/17 12:39:54;;;;;;;5.88;0.93;;;15.70;99.90;;;;;;4953050;29;20583;-75
2022/10/17 12:42:51;;;;;;;5.25;0.98;;;15.70;99.90;;;;;;4954466;29;20675;-80
2022/10/17 12:45:50;;;;;;;3.25;0.80;;;15.70;99.90;;;;;;4957900;28;20207;-74
2022/10/17 12:48:56;;;;;;;2.83;0.90;;;15.70;99.90;;;;;;4955523;29;20688;-79
2022/10/17 12:51:28;;;;;;;4.70;0.90;;;15.70;99.90;;;;;;4952663;29;20235;-80
2022/10/17 12:54:02;;;;;;;4.25;0.85;;;15.70;99.90;;;;;;4955581;28;20201;-80
2022/10/17 12:56:43;;;;;;;3.45;0.60;;;15.70;99.90;;;;;;4953106;28;20208;-82
2022/10/17 12:59:18;;;;;;;4.40;0.80;;;15.70;99.90;;;;;;4956194;28;20296;-81
2022/10/17 13:01:53;;;;;;;5.15;0.90;;;15.70;99.90;;;;;;4956722;28;20212;-81
2022/10/17 13:04:25;;;;;;;3.95;0.82;;;15.70;99.90;;;;;;4952896;29;20203;-81
2022/10/17 13:07:00;;;;;;;5.45;0.80;;;15.70;99.90;;;;;;4954692;29;20295;-79
2022/10/17 13:09:32;;;;;;;4.13;0.82;;;15.70;99.90;;;;;;4956357;29;20196;-81
2022/10/17 13:12:13;;;;;;;1.90;0.60;;;15.60;99.90;;;;;;4955832;28;20216;-81
2022/10/17 13:14:47;;;;;;;3.53;0.70;;;15.60;99.90;;;;;;4955693;28;20248;-80
2022/10/17 13:17:26;;;;;;;4.25;0.85;;;15.60;99.90;;;;;;4954914;28;20193;-81
2022/10/17 13:19:58;;;;;;;3.55;0.82;;;15.60;99.90;;;;;;4955325;29;20192;-73
2022/10/17 13:22:31;;;;;;;3.45;0.90;;;15.50;99.90;;;;;;4955452;28;20225;-69
2022/10/17 13:25:16;;;;;;;2.90;0.80;;;15.50;99.90;;;;;;4955685;28;20211;-75
2022/10/17 13:27:49;;;;;;;3.83;0.80;;;15.50;99.90;;;;;;4954862;29;20711;-77